Time;durP1;ratioP1;P1;durP2;ratioP2;P2;SDS_P1;SDS_P2;PMS_P1;PMS_P2;Temp;Humidity;BMP_temperature;BMP_pressure;BME280_temperature;BME280_humidity;BME280_pressure;Samples;Min_cycle;Max_cycle;Signal;HPM_P1;HPM_P2
2023/10/11 00:00:37;;;;;;;7.03;3.80;;;;;;;;;;5053230;28;20592;-85
2023/10/11 00:03:06;;;;;;;7.80;4.43;;;;;;;;;;5054146;28;20218;-85
2023/10/11 00:05:39;;;;;;;9.57;4.37;;;;;;;;;;5053376;28;20240;-85
2023/10/11 00:08:07;;;;;;;4.93;3.67;;;;;;;;;;5053749;28;20248;-85
2023/10/11 00:10:42;;;;;;;7.97;4.03;;;;;;;;;;5052802;28;20312;-84
2023/10/11 00:13:10;;;;;;;6.57;3.80;;;;;;;;;;5053809;28;20201;-85
2023/10/11 00:15:38;;;;;;;4.40;3.63;;;;;;;;;;5052997;28;20236;-85
2023/10/11 00:18:05;;;;;;;7.03;3.97;;;;;;;;;;5053258;28;20233;-85
2023/10/11 00:20:47;;;;;;;5.70;3.83;;;;;;;;;;5052997;28;20225;-85
2023/10/11 00:23:14;;;;;;;8.67;3.90;;;;;;;;;;5053288;28;20654;-85
2023/10/11 00:25:42;;;;;;;5.93;3.90;;;;;;;;;;5053057;28;20240;-85
2023/10/11 00:28:10;;;;;;;4.80;3.50;;;;;;;;;;5053441;28;20230;-85
2023/10/11 00:30:39;;;;;;;7.27;3.43;;;;;;;;;;5052885;28;20250;-85
2023/10/11 00:33:07;;;;;;;6.83;3.63;;;;;;;;;;5053130;28;20206;-85
2023/10/11 00:35:34;;;;;;;7.30;3.80;;;;;;;;;;5052855;28;20240;-84
2023/10/11 00:38:04;;;;;;;7.40;3.70;;;;;;;;;;5052779;28;20226;-84
2023/10/11 00:40:35;;;;;;;6.17;4.20;;;;;;;;;;5052556;28;20317;-85
2023/10/11 00:43:02;;;;;;;9.80;4.20;;;;;;;;;;5051916;28;20573;-85
2023/10/11 00:45:31;;;;;;;5.53;3.47;;;;;;;;;;5048682;28;20226;-85
2023/10/11 00:47:59;;;;;;;7.90;3.57;;;;;;;;;;5052693;28;20230;-85
2023/10/11 00:50:30;;;;;;;5.20;3.80;;;;;;;;;;5052438;28;20238;-85
2023/10/11 00:53:00;;;;;;;9.77;3.77;;;;;;;;;;5053185;28;20197;-84
2023/10/11 00:55:29;;;;;;;6.57;4.00;;;;;;;;;;5052256;28;20233;-84
2023/10/11 00:57:57;;;;;;;4.87;3.60;;;;;;;;;;5052563;28;20269;-85
2023/10/11 01:00:25;;;;;;;6.27;3.90;;;;;;;;;;5052354;28;20230;-85
2023/10/11 01:02:53;;;;;;;5.20;3.47;;;;;;;;;;5052554;28;20217;-84
2023/10/11 01:05:22;;;;;;;8.10;3.33;;;;;;;;;;5052378;28;20238;-85
2023/10/11 01:07:50;;;;;;;5.63;3.97;;;;;;;;;;5049893;28;20218;-85
2023/10/11 01:10:20;;;;;;;6.33;3.83;;;;;;;;;;5036388;28;20211;-85
2023/10/11 01:12:47;;;;;;;4.67;3.37;;;;;;;;;;5032899;28;20217;-85
2023/10/11 01:15:19;;;;;;;6.30;3.93;;;;;;;;;;5032249;28;20210;-85
2023/10/11 01:17:46;;;;;;;5.93;3.20;;;;;;;;;;5032319;28;20689;-85
2023/10/11 01:20:14;;;;;;;4.73;3.17;;;;;;;;;;5031643;28;20214;-85
2023/10/11 01:22:43;;;;;;;6.70;3.80;;;;;;;;;;5032604;28;20206;-85
2023/10/11 01:25:12;;;;;;;6.20;3.33;;;;;;;;;;5031771;28;20704;-85
2023/10/11 01:27:40;;;;;;;8.47;4.07;;;;;;;;;;5039343;28;20275;-85
2023/10/11 01:30:09;;;;;;;3.87;3.30;;;;;;;;;;5051617;28;20206;-84
2023/10/11 01:32:37;;;;;;;4.97;3.37;;;;;;;;;;5052381;28;20293;-84
2023/10/11 01:35:05;;;;;;;6.07;3.53;;;;;;;;;;5051561;28;20209;-85
2023/10/11 01:37:36;;;;;;;8.40;4.40;;;;;;;;;;5051846;28;20245;-85
2023/10/11 01:40:07;;;;;;;5.37;3.60;;;;;;;;;;5051552;28;20195;-85
2023/10/11 01:42:36;;;;;;;10.67;4.30;;;;;;;;;;5052200;28;20301;-85
2023/10/11 01:45:08;;;;;;;7.17;3.80;;;;;;;;;;5047648;28;20237;-85
2023/10/11 01:47:35;;;;;;;6.63;4.23;;;;;;;;;;5052080;28;20233;-85
2023/10/11 01:50:03;;;;;;;5.63;3.73;;;;;;;;;;5051945;28;20217;-85
2023/10/11 01:52:34;;;;;;;5.73;3.60;;;;;;;;;;5051669;28;20714;-85
2023/10/11 01:55:01;;;;;;;6.50;3.60;;;;;;;;;;5051851;28;20593;-85
2023/10/11 01:57:30;;;;;;;4.50;3.27;;;;;;;;;;5051406;28;20226;-85
2023/10/11 01:59:57;;;;;;;6.13;3.90;;;;;;;;;;5051776;28;20210;-85
2023/10/11 02:02:27;;;;;;;6.47;3.87;;;;;;;;;;5051140;28;20238;-85
2023/10/11 02:04:57;;;;;;;5.50;3.70;;;;;;;;;;5051912;28;20194;-85
2023/10/11 02:07:24;;;;;;;4.57;3.60;;;;;;;;;;5051087;28;20234;-85
2023/10/11 02:09:51;;;;;;;6.47;3.80;;;;;;;;;;5031343;28;20242;-85
2023/10/11 02:12:18;;;;;;;7.47;3.70;;;;;;;;;;5031233;28;20234;-85
2023/10/11 02:14:47;;;;;;;5.13;4.00;;;;;;;;;;5031853;28;20199;-85
2023/10/11 02:17:18;;;;;;;5.30;3.83;;;;;;;;;;5031027;28;20242;-84
2023/10/11 02:19:45;;;;;;;5.67;3.97;;;;;;;;;;5034379;28;20679;-84
2023/10/11 02:22:13;;;;;;;6.10;3.20;;;;;;;;;;5050416;28;20635;-85
2023/10/11 02:24:40;;;;;;;6.97;3.40;;;;;;;;;;5051513;28;20241;-85
2023/10/11 02:27:17;;;;;;;7.00;3.83;;;;;;;;;;5050937;28;20229;-85
2023/10/11 02:29:47;;;;;;;5.33;3.67;;;;;;;;;;5051168;28;20212;-85
2023/10/11 02:32:15;;;;;;;6.20;3.93;;;;;;;;;;5050690;28;20234;-85
2023/10/11 02:34:46;;;;;;;5.83;3.67;;;;;;;;;;5051300;28;20202;-85
2023/10/11 02:37:16;;;;;;;5.70;3.73;;;;;;;;;;5050688;28;20337;-85
2023/10/11 02:39:44;;;;;;;5.30;3.70;;;;;;;;;;5051116;28;20257;-84
2023/10/11 02:42:11;;;;;;;4.80;3.53;;;;;;;;;;5050934;28;20630;-84
2023/10/11 02:44:39;;;;;;;6.63;3.60;;;;;;;;;;5051313;28;20213;-85
2023/10/11 02:47:06;;;;;;;5.87;3.63;;;;;;;;;;5050724;28;20711;-85
2023/10/11 02:49:35;;;;;;;10.10;3.47;;;;;;;;;;5051004;28;20202;-85
2023/10/11 02:52:06;;;;;;;4.10;3.53;;;;;;;;;;5050574;28;20234;-85
2023/10/11 02:54:38;;;;;;;7.47;3.93;;;;;;;;;;5047640;28;20642;-85
2023/10/11 02:57:06;;;;;;;10.67;3.87;;;;;;;;;;5050743;28;20698;-85
2023/10/11 02:59:34;;;;;;;4.70;3.60;;;;;;;;;;5051242;28;20212;-85
2023/10/11 03:02:01;;;;;;;6.73;3.43;;;;;;;;;;5050569;28;20983;-85
2023/10/11 03:04:29;;;;;;;4.80;3.63;;;;;;;;;;5051327;28;20208;-85
2023/10/11 03:07:00;;;;;;;5.53;3.30;;;;;;;;;;5053689;28;20261;-85
2023/10/11 03:09:27;;;;;;;4.97;3.90;;;;;;;;;;5054701;28;20182;-85
2023/10/11 03:11:56;;;;;;;5.87;3.27;;;;;;;;;;5054419;28;20233;-85
2023/10/11 03:14:24;;;;;;;5.77;3.53;;;;;;;;;;5055139;28;20280;-84
2023/10/11 03:16:56;;;;;;;5.00;3.40;;;;;;;;;;5054057;28;20238;-84
2023/10/11 03:19:24;;;;;;;6.07;3.37;;;;;;;;;;5054615;28;20625;-84
2023/10/11 03:21:54;;;;;;;7.97;3.77;;;;;;;;;;5067941;28;20225;-84
2023/10/11 03:24:25;;;;;;;6.20;3.63;;;;;;;;;;5074722;28;20205;-84
2023/10/11 03:26:52;;;;;;;4.53;3.37;;;;;;;;;;5074030;28;20237;-84
2023/10/11 03:29:21;;;;;;;4.33;3.40;;;;;;;;;;5058596;28;20244;-84
2023/10/11 03:31:49;;;;;;;6.07;3.20;;;;;;;;;;5053947;28;20259;-84
2023/10/11 03:34:17;;;;;;;6.40;3.53;;;;;;;;;;5054269;28;20213;-84
2023/10/11 03:36:49;;;;;;;4.63;3.10;;;;;;;;;;5053809;28;20345;-84
2023/10/11 03:39:26;;;;;;;5.03;3.17;;;;;;;;;;5054226;28;20218;-84
2023/10/11 03:42:07;;;;;;;6.17;3.27;;;;;;;;;;5034045;28;20230;-84
2023/10/11 03:44:36;;;;;;;4.50;3.20;;;;;;;;;;5034464;28;20206;-84
2023/10/11 03:47:07;;;;;;;7.37;3.73;;;;;;;;;;5033526;28;20238;-84
2023/10/11 03:49:49;;;;;;;8.40;3.70;;;;;;;;;;5034049;28;20187;-84
2023/10/11 03:52:22;;;;;;;7.97;3.57;;;;;;;;;;5042978;28;20689;-84
2023/10/11 03:54:53;;;;;;;7.20;3.80;;;;;;;;;;5050092;28;20218;-84
2023/10/11 03:57:22;;;;;;;8.77;3.50;;;;;;;;;;5053316;28;20312;-84
2023/10/11 03:59:51;;;;;;;7.63;3.73;;;;;;;;;;5053673;28;20210;-84
2023/10/11 04:02:19;;;;;;;5.83;3.43;;;;;;;;;;5053328;28;20238;-84
2023/10/11 04:04:48;;;;;;;7.03;3.17;;;;;;;;;;5053667;28;20688;-84
2023/10/11 04:07:16;;;;;;;5.03;3.40;;;;;;;;;;5053147;28;20238;-85
2023/10/11 04:09:45;;;;;;;3.60;3.30;;;;;;;;;;5053609;28;20201;-84
2023/10/11 04:12:12;;;;;;;6.03;3.50;;;;;;;;;;5053199;28;20750;-84
2023/10/11 04:14:44;;;;;;;4.47;3.23;;;;;;;;;;5053738;28;20214;-84
2023/10/11 04:17:15;;;;;;;7.40;3.70;;;;;;;;;;5052479;28;20269;-84
2023/10/11 04:19:43;;;;;;;6.67;4.00;;;;;;;;;;5053445;28;20198;-84
2023/10/11 04:22:18;;;;;;;7.00;3.77;;;;;;;;;;5052896;28;20242;-84
2023/10/11 04:24:46;;;;;;;6.87;4.00;;;;;;;;;;5053440;28;20201;-84
2023/10/11 04:30:17;;;;;;;6.57;3.57;;;;;;;;;;5052905;28;20651;-84
2023/10/11 04:32:46;;;;;;;4.60;3.23;;;;;;;;;;5037020;28;20210;-85
2023/10/11 04:35:21;;;;;;;7.50;3.63;;;;;;;;;;5054039;28;20206;-84
2023/10/11 04:37:54;;;;;;;5.80;3.87;;;;;;;;;;5053807;28;20234;-84
2023/10/11 04:40:34;;;;;;;5.47;3.60;;;;;;;;;;5055319;28;20194;-84
2023/10/11 04:43:20;;;;;;;4.53;3.33;;;;;;;;;;5036618;28;20190;-84
2023/10/11 04:45:50;;;;;;;4.37;3.60;;;;;;;;;;5047972;28;20324;-86
2023/10/11 04:48:18;;;;;;;6.57;3.40;;;;;;;;;;5054354;28;20230;-84
2023/10/11 04:50:47;;;;;;;7.23;3.50;;;;;;;;;;5053642;28;20230;-84
2023/10/11 04:53:18;;;;;;;4.03;3.23;;;;;;;;;;5057346;28;20215;-84
2023/10/11 04:55:47;;;;;;;3.60;3.20;;;;;;;;;;5050059;28;20254;-85
2023/10/11 04:58:21;;;;;;;9.20;3.40;;;;;;;;;;5053558;28;20676;-84
2023/10/11 05:00:54;;;;;;;5.97;3.23;;;;;;;;;;5053586;28;20237;-84
2023/10/11 05:03:28;;;;;;;5.50;3.57;;;;;;;;;;5053839;28;20624;-84
2023/10/11 05:06:12;;;;;;;6.00;3.07;;;;;;;;;;5053471;28;20332;-84
2023/10/11 05:08:52;;;;;;;3.70;3.33;;;;;;;;;;5053235;28;20237;-85
2023/10/11 05:11:36;;;;;;;5.77;3.30;;;;;;;;;;5052751;28;20257;-84
2023/10/11 05:14:10;;;;;;;8.80;2.70;;;;;;;;;;5053648;28;20237;-83
2023/10/11 05:16:44;;;;;;;6.00;3.50;;;;;;;;;;5052563;28;20328;-84
2023/10/11 05:19:14;;;;;;;9.33;3.50;;;;;;;;;;5053132;28;20206;-85
2023/10/11 05:21:43;;;;;;;4.60;3.80;;;;;;;;;;5053818;28;20657;-85
2023/10/11 05:24:29;;;;;;;5.00;3.03;;;;;;;;;;5053504;28;20877;-85
2023/10/11 05:27:11;;;;;;;5.10;3.63;;;;;;;;;;5052802;28;20637;-86
2023/10/11 05:30:05;;;;;;;7.53;3.80;;;;;;;;;;5052416;28;20693;-85
2023/10/11 05:32:32;;;;;;;4.63;3.27;;;;;;;;;;5052180;28;20253;-85
2023/10/11 05:35:19;;;;;;;7.90;4.07;;;;;;;;;;5053165;28;20198;-87
2023/10/11 05:51:32;;;;;;;9.30;5.30;;;;;;;;;;5051695;28;20291;-85
2023/10/11 05:54:00;;;;;;;10.67;5.87;;;;;;;;;;5052118;28;20572;-85
2023/10/11 05:56:33;;;;;;;16.47;9.03;;;;;;;;;;5051403;28;20905;-88
2023/10/11 05:59:03;;;;;;;15.00;7.70;;;;;;;;;;5051538;28;20303;-85
2023/10/11 06:01:30;;;;;;;15.73;8.00;;;;;;;;;;5051513;28;20588;-86
2023/10/11 06:04:03;;;;;;;13.33;7.03;;;;;;;;;;5051740;28;20206;-86
2023/10/11 06:06:38;;;;;;;13.67;6.67;;;;;;;;;;5051455;28;20241;-87
2023/10/11 06:09:08;;;;;;;11.10;5.27;;;;;;;;;;5051504;28;20279;-87
2023/10/11 06:11:38;;;;;;;7.67;4.87;;;;;;;;;;5051363;28;20240;-85
2023/10/11 06:14:07;;;;;;;11.13;5.90;;;;;;;;;;5051741;28;20206;-84
2023/10/11 06:16:37;;;;;;;6.43;4.87;;;;;;;;;;5051393;28;20230;-86
2023/10/11 06:19:17;;;;;;;8.23;4.80;;;;;;;;;;5052740;28;20236;-84
2023/10/11 06:21:56;;;;;;;9.37;5.00;;;;;;;;;;5051599;28;20240;-84
2023/10/11 06:24:23;;;;;;;8.93;5.83;;;;;;;;;;5057853;28;20268;-84
2023/10/11 06:26:53;;;;;;;13.90;5.43;;;;;;;;;;5059830;28;20317;-84
2023/10/11 06:29:23;;;;;;;8.93;5.27;;;;;;;;;;5057218;28;20197;-84
2023/10/11 06:31:50;;;;;;;6.83;4.93;;;;;;;;;;5051207;28;20316;-84
2023/10/11 06:34:23;;;;;;;8.77;5.57;;;;;;;;;;5051818;28;20217;-85
2023/10/11 06:36:50;;;;;;;9.03;5.03;;;;;;;;;;5051003;28;20328;-85
2023/10/11 06:42:13;;;;;;;11.13;5.17;;;;;;;;;;5019069;28;20237;-84
2023/10/11 06:44:41;;;;;;;9.23;5.23;;;;;;;;;;5055818;28;20664;-84
2023/10/11 06:47:11;;;;;;;6.03;4.37;;;;;;;;;;5054705;28;20590;-85
2023/10/11 06:49:44;;;;;;;9.30;5.77;;;;;;;;;;5055578;28;20208;-84
2023/10/11 06:52:11;;;;;;;10.17;4.97;;;;;;;;;;5054839;28;20230;-84
2023/10/11 06:54:45;;;;;;;5.50;4.27;;;;;;;;;;5055368;28;20202;-84
2023/10/11 06:57:16;;;;;;;6.93;4.60;;;;;;;;;;5053811;28;20712;-83
2023/10/11 06:59:43;;;;;;;7.87;4.77;;;;;;;;;;5053424;28;20229;-83
2023/10/11 07:02:18;;;;;;;8.57;4.83;;;;;;;;;;5054488;28;20245;-84
2023/10/11 07:04:50;;;;;;;11.63;5.17;;;;;;;;;;5054719;28;20205;-83
2023/10/11 07:07:18;;;;;;;10.10;4.53;;;;;;;;;;5053415;28;20685;-83
2023/10/11 07:09:56;;;;;;;8.93;4.43;;;;;;;;;;5054631;28;20550;-83
2023/10/11 07:12:34;;;;;;;8.63;4.83;;;;;;;;;;5054405;28;20240;-83
2023/10/11 07:15:01;;;;;;;7.93;4.40;;;;;;;;;;5044816;28;20653;-83
2023/10/11 07:17:32;;;;;;;7.47;4.40;;;;;;;;;;5060990;28;20237;-83
2023/10/11 07:20:00;;;;;;;8.23;4.60;;;;;;;;;;5073761;28;20761;-83
2023/10/11 07:22:28;;;;;;;6.33;4.50;;;;;;;;;;5073659;28;20259;-83
2023/10/11 07:24:57;;;;;;;9.73;4.73;;;;;;;;;;5060960;28;20240;-83
2023/10/11 07:27:37;;;;;;;10.27;5.03;;;;;;;;;;5052726;28;20230;-83
2023/10/11 07:30:15;;;;;;;8.13;4.83;;;;;;;;;;5053084;28;20561;-84
2023/10/11 07:32:43;;;;;;;7.47;5.33;;;;;;;;;;5053981;28;20304;-83
2023/10/11 07:35:18;;;;;;;11.67;5.20;;;;;;;;;;5053266;28;20209;-84
2023/10/11 07:37:46;;;;;;;8.67;5.10;;;;;;;;;;5053493;28;20738;-83
2023/10/11 07:40:21;;;;;;;8.43;5.47;;;;;;;;;;5052885;28;20214;-84
2023/10/11 07:42:48;;;;;;;7.77;5.10;;;;;;;;;;5053653;28;20701;-83
2023/10/11 07:45:15;;;;;;;7.87;5.60;;;;;;;;;;5053618;28;20206;-84
2023/10/11 07:47:45;;;;;;;12.00;6.00;;;;;;;;;;5053497;28;20222;-83
2023/10/11 07:50:15;;;;;;;12.83;6.03;;;;;;;;;;5052703;28;20669;-83
2023/10/11 07:52:42;;;;;;;8.17;5.73;;;;;;;;;;5053264;28;20601;-83
2023/10/11 07:55:12;;;;;;;11.50;6.13;;;;;;;;;;5053294;28;20242;-83
2023/10/11 07:57:44;;;;;;;10.37;6.50;;;;;;;;;;5053562;28;20226;-83
2023/10/11 08:00:17;;;;;;;13.10;6.80;;;;;;;;;;5052327;28;20706;-83
2023/10/11 08:02:45;;;;;;;8.80;6.13;;;;;;;;;;5053345;28;20256;-84
2023/10/11 08:05:14;;;;;;;10.87;7.10;;;;;;;;;;5052821;28;20210;-82
2023/10/11 08:07:41;;;;;;;13.73;5.70;;;;;;;;;;5053214;28;20313;-83
2023/10/11 08:10:29;;;;;;;6.07;4.70;;;;;;;;;;5052664;28;20198;-83
2023/10/11 08:12:57;;;;;;;10.67;4.73;;;;;;;;;;5052930;28;20206;-83
2023/10/11 08:15:25;;;;;;;7.20;4.33;;;;;;;;;;5052701;28;20763;-84
2023/10/11 08:17:52;;;;;;;7.60;4.07;;;;;;;;;;5053348;28;20226;-83
2023/10/11 08:20:24;;;;;;;7.50;3.97;;;;;;;;;;5052645;28;20229;-84
2023/10/11 08:22:55;;;;;;;7.67;4.43;;;;;;;;;;5053118;28;20252;-83
2023/10/11 08:25:26;;;;;;;7.13;4.80;;;;;;;;;;5052945;28;20200;-83
2023/10/11 08:28:10;;;;;;;5.97;3.83;;;;;;;;;;5053147;28;20233;-82
2023/10/11 08:30:38;;;;;;;7.17;3.50;;;;;;;;;;5052548;28;20234;-83
2023/10/11 08:33:06;;;;;;;5.63;3.63;;;;;;;;;;5053291;28;20558;-82
2023/10/11 08:35:34;;;;;;;7.30;3.80;;;;;;;;;;5052334;28;20309;-83
2023/10/11 08:38:04;;;;;;;5.57;3.90;;;;;;;;;;5052715;28;20237;-83
2023/10/11 08:40:35;;;;;;;13.40;4.33;;;;;;;;;;5051924;28;20316;-83
2023/10/11 08:43:02;;;;;;;9.37;4.10;;;;;;;;;;5052924;28;20191;-82
2023/10/11 08:45:33;;;;;;;7.43;3.77;;;;;;;;;;5051808;28;20252;-83
2023/10/11 08:48:00;;;;;;;4.73;3.37;;;;;;;;;;5052719;28;20665;-82
2023/10/11 08:50:29;;;;;;;5.57;3.90;;;;;;;;;;5051719;28;20875;-82
2023/10/11 08:52:57;;;;;;;9.87;4.60;;;;;;;;;;5052917;28;20257;-82
2023/10/11 08:55:25;;;;;;;10.70;3.73;;;;;;;;;;5051900;28;20234;-82
2023/10/11 08:57:53;;;;;;;7.33;3.90;;;;;;;;;;5052182;28;20715;-82
2023/10/11 09:00:29;;;;;;;5.37;3.20;;;;;;;;;;5051589;28;20264;-83
2023/10/11 09:02:58;;;;;;;4.77;2.67;;;;;;;;;;5051423;28;20209;-83
2023/10/11 09:05:42;;;;;;;6.17;2.90;;;;;;;;;;5051932;28;20233;-83
2023/10/11 09:08:20;;;;;;;7.57;3.27;;;;;;;;;;5052102;28;20731;-83
2023/10/11 09:10:49;;;;;;;5.00;2.80;;;;;;;;;;5051546;28;20302;-91
2023/10/11 09:13:25;;;;;;;10.33;3.00;;;;;;;;;;5032230;28;20206;-82
2023/10/11 09:15:54;;;;;;;6.07;3.00;;;;;;;;;;5044613;28;20287;-82
2023/10/11 09:18:24;;;;;;;5.07;3.17;;;;;;;;;;5051933;28;20226;-82
2023/10/11 09:20:56;;;;;;;9.37;2.97;;;;;;;;;;5050892;28;20321;-82
2023/10/11 09:23:34;;;;;;;6.00;2.92;;;;;;;;;;5031950;28;20637;-81
2023/10/11 09:26:02;;;;;;;6.78;3.10;;;;;;;;;;5031737;28;20237;-82
2023/10/11 09:28:33;;;;;;;8.18;2.65;;;;;;;;;;5032110;28;20231;-82
2023/10/11 09:31:10;;;;;;;3.53;2.58;;;;;;;;;;5031227;28;20235;-82
2023/10/11 09:33:40;;;;;;;4.90;2.88;;;;;;;;;;5031870;28;20214;-82
2023/10/11 09:36:07;;;;;;;4.95;3.08;;;;;;;;;;5031203;28;20234;-82
2023/10/11 09:38:40;;;;;;;5.82;2.60;;;;;;;;;;5031481;28;20239;-82
2023/10/11 09:41:08;;;;;;;5.40;2.72;;;;;;;;;;5031055;28;20242;-83
2023/10/11 09:43:38;;;;;;;3.35;2.30;;;;;;;;;;5031516;28;20210;-82
2023/10/11 09:46:11;;;;;;;11.95;3.17;;;;;;;;;;5031263;28;20238;-83
2023/10/11 09:48:38;;;;;;;8.27;3.10;;;;;;;;;;5031548;28;20229;-83
2023/10/11 09:51:08;;;;;;;7.18;2.45;;;;;;;;;;5030717;28;20245;-83
2023/10/11 09:53:41;;;;;;;6.78;2.58;;;;;;;;;;5031822;28;20214;-83
2023/10/11 09:56:15;;;;;;;6.63;2.75;;;;;;;;;;5031058;28;20321;-83
2023/10/11 09:58:45;;;;;;;12.88;2.75;;;;;;;;;;5031665;28;20595;-83
2023/10/11 10:01:18;;;;;;;8.32;2.90;;;;;;;;;;5030443;28;20241;-82
2023/10/11 10:03:47;;;;;;;3.90;2.40;;;;;;;;;;5067701;28;20251;-82
2023/10/11 10:06:21;;;;;;;6.78;2.97;;;;;;;;;;5071084;28;20320;-84
2023/10/11 10:09:22;;;;;;;5.78;2.50;;;;;;;;;;5066317;28;20222;-82
2023/10/11 10:12:25;;;;;;;6.00;2.60;;;;;;;;;;5051483;28;20233;-83
2023/10/11 10:15:02;;;;;;;6.85;2.70;;;;;;;;;;4973262;28;20296;-85
2023/10/11 10:17:29;;;;;;;6.63;2.58;;;;;;;;;;4970080;28;20300;-85
2023/10/11 10:20:00;;;;;;;5.57;2.28;;;;;;;;;;5013376;28;20226;-85
2023/10/11 10:22:31;;;;;;;4.22;2.33;;;;;;;;;;5030688;28;20234;-85
2023/10/11 10:25:19;;;;;;;5.45;2.35;;;;;;;;;;5031650;28;20214;-84
2023/10/11 10:27:46;;;;;;;9.23;2.60;;;;;;;;;;5030820;28;20280;-84
2023/10/11 10:30:21;;;;;;;4.47;2.65;;;;;;;;;;5030184;28;20207;-84
2023/10/11 10:33:07;;;;;;;5.57;2.85;;;;;;;;;;5031450;28;20191;-85
2023/10/11 10:35:37;;;;;;;6.55;2.63;;;;;;;;;;5030934;28;20234;-84
2023/10/11 10:38:09;;;;;;;6.20;2.58;;;;;;;;;;5031105;28;21035;-84
2023/10/11 10:40:45;;;;;;;6.75;2.80;;;;;;;;;;5030428;28;20261;-84
2023/10/11 10:43:14;;;;;;;6.35;2.67;;;;;;;;;;5030683;28;20206;-85
2023/10/11 10:45:41;;;;;;;8.18;2.50;;;;;;;;;;5030713;28;20677;-87
2023/10/11 10:48:15;;;;;;;6.40;1.95;;;;;;;;;;5030983;28;20227;-85
2023/10/11 10:50:49;;;;;;;6.05;3.25;;;;;;;;;;5030247;28;20229;-84
2023/10/11 10:53:16;;;;;;;7.18;2.88;;;;;;;;;;5030904;28;20203;-85
2023/10/11 10:55:44;;;;;;;3.97;2.70;;;;;;;;;;5030530;28;20253;-84
2023/10/11 10:58:18;;;;;;;5.07;2.90;;;;;;;;;;5030986;28;20239;-85
2023/10/11 11:00:44;;;;;;;4.70;2.40;;;;;;;;;;5029864;28;20241;-84
2023/10/11 11:03:18;;;;;;;6.05;2.50;;;;;;;;;;5030706;28;20207;-84
2023/10/11 11:05:55;;;;;;;6.68;2.85;;;;;;;;;;5030072;28;20292;-82
2023/10/11 11:08:27;;;;;;;4.07;2.53;;;;;;;;;;5031215;28;20233;-83
2023/10/11 11:10:56;;;;;;;6.90;2.97;;;;;;;;;;5029791;28;20337;-82
2023/10/11 11:13:25;;;;;;;7.20;3.13;;;;;;;;;;5030641;28;20211;-83
2023/10/11 11:15:55;;;;;;;7.45;2.70;;;;;;;;;;5030267;28;20234;-82
2023/10/11 11:18:32;;;;;;;9.75;3.03;;;;;;;;;;5030699;28;20734;-83
2023/10/11 11:21:17;;;;;;;4.97;3.03;;;;;;;;;;5029479;28;20284;-83
2023/10/11 11:23:44;;;;;;;6.22;2.35;;;;;;;;;;5030818;28;20264;-83
2023/10/11 11:26:15;;;;;;;4.82;2.60;;;;;;;;;;5030541;28;20222;-82
2023/10/11 11:28:42;;;;;;;6.57;3.08;;;;;;;;;;5034314;28;20626;-83
2023/10/11 11:31:13;;;;;;;4.20;2.55;;;;;;;;;;5032923;28;20709;-83
2023/10/11 11:33:47;;;;;;;6.93;2.58;;;;;;;;;;5034505;28;20217;-83
2023/10/11 11:36:27;;;;;;;9.10;3.30;;;;;;;;;;5033979;28;20316;-83
2023/10/11 11:38:53;;;;;;;4.68;2.60;;;;;;;;;;5033913;28;20238;-82
2023/10/11 11:41:22;;;;;;;3.88;3.03;;;;;;;;;;5032860;28;20239;-83
2023/10/11 11:43:48;;;;;;;4.95;2.70;;;;;;;;;;5033736;28;20218;-83
2023/10/11 11:46:15;;;;;;;6.70;2.70;;;;;;;;;;5033403;28;20317;-82
2023/10/11 11:48:42;;;;;;;9.32;2.92;;;;;;;;;;5033885;28;20226;-82
2023/10/11 11:51:13;;;;;;;8.02;3.17;;;;;;;;;;5032322;28;20241;-82
2023/10/11 11:53:43;;;;;;;4.72;2.42;;;;;;;;;;5051710;28;20202;-82
2023/10/11 11:56:11;;;;;;;7.78;2.63;;;;;;;;;;5053065;28;20234;-84
2023/10/11 11:58:44;;;;;;;4.97;2.65;;;;;;;;;;5053246;28;20234;-82
2023/10/11 12:01:15;;;;;;;10.40;2.80;;;;;;;;;;5052547;28;20704;-82
2023/10/11 12:03:42;;;;;;;6.57;2.70;;;;;;;;;;5053513;28;20228;-83
2023/10/11 12:06:22;;;;;;;5.95;3.10;;;;;;;;;;5053189;28;20276;-82
2023/10/11 12:08:48;;;;;;;7.03;2.53;;;;;;;;;;5053742;28;20226;-83
2023/10/11 12:11:15;;;;;;;9.00;3.80;;;;;;;;;;5052514;28;20236;-82
2023/10/11 12:13:44;;;;;;;9.45;2.67;;;;;;;;;;5053746;28;20209;-81
2023/10/11 12:16:11;;;;;;;5.65;2.60;;;;;;;;;;5054424;28;20230;-83
2023/10/11 12:18:38;;;;;;;4.75;2.70;;;;;;;;;;5053962;28;20226;-84
2023/10/11 12:21:11;;;;;;;5.78;2.88;;;;;;;;;;5052570;28;20591;-83
2023/10/11 12:23:45;;;;;;;10.93;2.95;;;;;;;;;;5053546;28;20210;-84
2023/10/11 12:26:12;;;;;;;4.50;2.45;;;;;;;;;;5053271;28;20234;-84
2023/10/11 12:28:39;;;;;;;9.93;2.67;;;;;;;;;;5053112;28;20230;-84
2023/10/11 12:31:08;;;;;;;8.25;2.58;;;;;;;;;;5052163;28;20241;-84
2023/10/11 12:33:35;;;;;;;9.52;2.78;;;;;;;;;;5053364;28;20209;-83
2023/10/11 12:36:05;;;;;;;6.35;2.30;;;;;;;;;;5052309;28;20229;-82
2023/10/11 12:38:36;;;;;;;6.68;2.60;;;;;;;;;;5052456;28;20279;-84
2023/10/11 12:41:03;;;;;;;7.28;2.53;;;;;;;;;;5052264;28;20240;-84
2023/10/11 12:43:30;;;;;;;7.80;2.70;;;;;;;;;;5052703;28;20210;-84
2023/10/11 12:45:57;;;;;;;6.82;2.53;;;;;;;;;;5052402;28;20226;-85
2023/10/11 12:48:26;;;;;;;10.15;3.20;;;;;;;;;;5052572;28;20222;-85
2023/10/11 12:50:53;;;;;;;8.05;2.75;;;;;;;;;;5051949;28;20706;-84
2023/10/11 12:53:20;;;;;;;4.40;2.60;;;;;;;;;;5052543;28;20206;-85
2023/10/11 12:55:49;;;;;;;5.07;2.58;;;;;;;;;;5052373;28;20312;-85
2023/10/11 12:58:19;;;;;;;7.75;2.70;;;;;;;;;;5052593;28;20769;-84
2023/10/11 13:00:51;;;;;;;6.07;2.22;;;;;;;;;;5051693;28;20300;-84
2023/10/11 13:03:25;;;;;;;6.53;2.45;;;;;;;;;;5052451;28;20190;-86
2023/10/11 13:05:54;;;;;;;7.80;2.80;;;;;;;;;;5052259;28;20654;-86
2023/10/11 13:08:24;;;;;;;3.92;2.15;;;;;;;;;;5053216;28;20229;-84
2023/10/11 13:10:52;;;;;;;9.35;2.75;;;;;;;;;;5051875;28;20716;-84
2023/10/11 13:13:20;;;;;;;5.45;2.40;;;;;;;;;;5052367;28;20210;-85
2023/10/11 13:15:55;;;;;;;4.38;2.90;;;;;;;;;;5053040;28;20237;-85
2023/10/11 13:18:22;;;;;;;6.50;2.47;;;;;;;;;;5054665;28;20222;-86
2023/10/11 13:20:49;;;;;;;5.57;2.35;;;;;;;;;;5054025;28;20237;-85
2023/10/11 13:23:17;;;;;;;3.42;2.13;;;;;;;;;;5061087;28;20228;-87
2023/10/11 13:25:45;;;;;;;4.43;2.83;;;;;;;;;;5076995;28;20210;-86
2023/10/11 13:28:18;;;;;;;6.55;2.30;;;;;;;;;;5077746;28;20234;-86
2023/10/11 13:30:47;;;;;;;3.53;2.20;;;;;;;;;;5077055;28;20213;-85
2023/10/11 13:33:15;;;;;;;6.03;2.53;;;;;;;;;;5077480;28;20253;-86
2023/10/11 13:35:42;;;;;;;3.63;2.47;;;;;;;;;;5076461;28;20237;-85
2023/10/11 13:38:16;;;;;;;3.85;2.70;;;;;;;;;;5077607;28;20220;-86
2023/10/11 13:40:52;;;;;;;5.75;2.80;;;;;;;;;;5077375;28;20221;-87
2023/10/11 13:43:21;;;;;;;4.15;2.33;;;;;;;;;;5077910;28;20182;-87
2023/10/11 13:45:48;;;;;;;3.90;2.17;;;;;;;;;;5077385;28;20226;-89
2023/10/11 13:48:15;;;;;;;5.07;2.45;;;;;;;;;;5077026;28;20252;-86
2023/10/11 13:50:49;;;;;;;4.32;2.85;;;;;;;;;;5075527;28;20222;-87
2023/10/11 13:53:20;;;;;;;3.88;2.15;;;;;;;;;;5076812;28;20198;-87
2023/10/11 13:55:51;;;;;;;6.18;2.60;;;;;;;;;;5076027;28;20233;-86
2023/10/11 13:58:20;;;;;;;3.80;2.80;;;;;;;;;;5076304;28;20240;-86
2023/10/11 14:01:13;;;;;;;3.05;2.05;;;;;;;;;;5075216;28;20267;-87
2023/10/11 14:03:45;;;;;;;3.42;2.22;;;;;;;;;;5093815;28;20190;-86
2023/10/11 14:06:28;;;;;;;3.72;2.47;;;;;;;;;;5094895;28;20242;-87
2023/10/11 14:08:55;;;;;;;7.50;3.15;;;;;;;;;;5089800;28;20197;-87
2023/10/11 14:11:23;;;;;;;6.45;2.20;;;;;;;;;;5074928;28;20228;-86
2023/10/11 14:13:52;;;;;;;4.93;2.80;;;;;;;;;;5075500;28;20229;-87
2023/10/11 14:16:27;;;;;;;6.25;2.30;;;;;;;;;;5075790;28;20225;-87
2023/10/11 14:18:54;;;;;;;4.10;2.25;;;;;;;;;;5058308;28;20332;-86
2023/10/11 14:21:24;;;;;;;2.78;2.10;;;;;;;;;;5051667;28;20233;-86
2023/10/11 14:23:51;;;;;;;6.63;3.03;;;;;;;;;;5052862;28;20241;-86
2023/10/11 14:26:18;;;;;;;4.60;2.47;;;;;;;;;;5052158;28;20233;-87
2023/10/11 14:28:46;;;;;;;5.70;2.45;;;;;;;;;;5052117;28;20248;-86
2023/10/11 14:31:22;;;;;;;4.43;2.30;;;;;;;;;;5049825;28;20225;-86
2023/10/11 14:33:49;;;;;;;4.18;2.47;;;;;;;;;;5052642;28;20205;-86
2023/10/11 14:36:23;;;;;;;2.53;2.30;;;;;;;;;;5050602;28;20442;-87
2023/10/11 14:38:51;;;;;;;5.97;2.50;;;;;;;;;;5050436;28;20324;-86
2023/10/11 14:41:21;;;;;;;4.75;2.67;;;;;;;;;;5051627;28;20244;-86
2023/10/11 14:43:48;;;;;;;5.97;2.33;;;;;;;;;;5051543;28;20217;-86
2023/10/11 14:46:19;;;;;;;4.70;2.40;;;;;;;;;;5052149;28;20241;-86
2023/10/11 14:48:48;;;;;;;5.25;2.30;;;;;;;;;;5053452;28;20234;-85
2023/10/11 14:51:15;;;;;;;3.40;2.33;;;;;;;;;;5051441;28;20233;-87
2023/10/11 14:53:44;;;;;;;4.63;2.55;;;;;;;;;;5053636;28;20831;-86
2023/10/11 14:56:11;;;;;;;3.22;2.13;;;;;;;;;;5051498;28;20703;-86
2023/10/11 14:58:38;;;;;;;6.07;2.40;;;;;;;;;;5053410;28;20234;-85
2023/10/11 15:01:07;;;;;;;8.05;2.38;;;;;;;;;;5051940;28;20237;-86
2023/10/11 15:03:36;;;;;;;8.82;2.63;;;;;;;;;;5054185;28;20236;-86
2023/10/11 15:06:08;;;;;;;6.13;2.55;;;;;;;;;;5053693;28;20252;-86
2023/10/11 15:08:36;;;;;;;6.78;2.65;;;;;;;;;;5054365;28;20244;-86
2023/10/11 15:11:04;;;;;;;5.68;2.55;;;;;;;;;;5053016;28;20230;-86
2023/10/11 15:13:32;;;;;;;6.65;2.90;;;;;;;;;;5053840;28;20206;-86
2023/10/11 15:16:00;;;;;;;2.38;2.17;;;;;;;;;;5053689;28;20237;-86
2023/10/11 15:18:27;;;;;;;4.40;2.78;;;;;;;;;;5054438;28;20230;-86
2023/10/11 15:20:56;;;;;;;4.63;2.53;;;;;;;;;;5053199;28;20256;-86